Anthon, Iowa
Current Conditions -  °F | °C
As of 5:52 AM on Wednesday 28 Jan 2015 (Local Time) from KSUX Reporting Station
Clear Clear  
Wind Chill: -3°   Ceiling: Unl
Heat Index:   Visibility: 10mi
Dew Point: -2°   Wind: 6mph
Humidity: 88%   Direction: 120°ESE
Pressure: 29.89"   Gusts: NA
Location:  42.39°N, 95.87°W
Report Text: KSUX 281152Z 12005KT 10SM CLR 00/M02 A2989 RMK AO2 SLP130 T00001017 10011 21006 56014
Loading
Personal Weather Stations






























Interactive Weather Map New forecast layout! Learn more

10-Day Weather Forecast

Advertisements
Track Severe Weather on mobile